Luke Fidler, Pennsylvania
Current Conditions -  °F | °C
As of 3:53 AM on Wednesday 22 Oct 2014 (Local Time) from KSEG Reporting Station
Overcast Overcast  
Wind Chill: 54°   Ceiling: 2900
Heat Index: 54°   Visibility: 10mi
Dew Point: 47°   Wind: 10mph
Humidity: 77%   Direction: 350°N
Pressure: 29.94"   Gusts: NA
Location:  40.7842°N, 76.5797°W
Report Text: KSEG 220753Z AUTO 35009KT 10SM OVC029 12/08 A2994 RMK AO2 SLP137 T01220083
Loading
Personal Weather Stations






























Interactive Weather Map
Tropical Storm Tracking
New forecast layout! Learn more

10-Day Weather Forecast

Advertisements
Track Severe Weather on mobile